Time;durP1;ratioP1;P1;durP2;ratioP2;P2;SDS_P1;SDS_P2;PMS_P1;PMS_P2;Temp;Humidity;BMP_temperature;BMP_pressure;BME280_temperature;BME280_humidity;BME280_pressure;Samples;Min_cycle;Max_cycle;Signal;HPM_P1;HPM_P2
2024/03/23 00:00:00;;;;;;;49.63;19.97;;;;;;;9.65;100.00;99860.60;5199601;55;1140903;-85
2024/03/23 00:05:12;;;;;;;132.10;42.70;;;;;;;9.71;100.00;99856.62;5181749;55;1140618;-84
2024/03/23 00:10:18;;;;;;;34.87;17.03;;;;;;;9.69;100.00;99856.74;5141366;55;1142763;-84
2024/03/23 00:15:37;;;;;;;32.40;14.80;;;;;;;9.70;100.00;99856.27;4923572;54;1140535;-84
2024/03/23 00:20:49;;;;;;;52.83;19.73;;;;;;;9.69;100.00;99848.82;4983271;56;1140748;-85
2024/03/23 00:26:02;;;;;;;;;;;;;;;;;;;;;
2024/03/23 00:31:04;;;;;;;75.35;24.95;;;;;;;9.58;100.00;99809.78;4871295;57;1140736;-85
2024/03/23 00:36:43;;;;;;;;;;;;;;;;;;;;;
2024/03/23 00:42:10;;;;;;;;;;;;;;;;;;;;;
2024/03/23 00:47:21;;;;;;;29.17;17.23;;;;;;;9.69;100.00;99816.30;4885657;57;1136460;-84
2024/03/23 00:52:34;;;;;;;;;;;;;;;;;;;;;
2024/03/23 00:59:19;;;;;;;;;;;;;;;;;;;;;
2024/03/23 01:04:48;;;;;;;;;;;;;;;;;;;;;
2024/03/23 01:10:15;;;;;;;;;;;;;;;;;;;;;
2024/03/23 01:15:32;;;;;;;31.83;15.90;;;;;;;9.68;100.00;99808.02;4754281;57;1136794;-85
2024/03/23 01:20:45;;;;;;;25.17;15.72;;;;;;;9.69;100.00;99797.81;4737704;59;1140831;-85
2024/03/23 01:26:05;;;;;;;;;;;;;;;;;;;;;
2024/03/23 01:31:06;;;;;;;20.52;14.05;;;;;;;9.69;100.00;99780.66;4884004;55;1140724;-85
2024/03/23 01:36:20;;;;;;;21.03;13.13;;;;;;;9.71;100.00;99763.72;5117516;55;1140645;-85
2024/03/23 01:41:22;;;;;;;81.53;28.23;;;;;;;9.75;100.00;99749.77;4911485;55;1140681;-85
2024/03/23 01:46:43;;;;;;;;;;;;;;;;;;;;;
2024/03/23 01:52:01;;;;;;;25.77;15.30;;;;;;;9.80;100.00;99747.55;5231830;54;46960;-85
2024/03/23 01:57:13;;;;;;;26.33;15.63;;;;;;;9.75;100.00;99740.05;5100988;56;1136693;-85
2024/03/23 02:02:18;;;;;;;19.80;12.87;;;;;;;9.75;100.00;99738.73;5132748;55;1140742;-84
2024/03/23 02:07:37;;;;;;;;;;;;;;;;;;;;;
2024/03/23 02:12:38;;;;;;;22.37;12.97;;;;;;;9.76;100.00;99721.92;4576733;60;1140556;-84
2024/03/23 02:17:51;;;;;;;15.37;11.20;;;;;;;9.76;100.00;99720.59;4631896;60;1140973;-85
2024/03/23 02:23:08;;;;;;;;;;;;;;;;;;;;;
2024/03/23 02:28:22;;;;;;;19.10;12.70;;;;;;;9.73;100.00;99718.22;5235912;55;46848;-85
2024/03/23 02:33:34;;;;;;;20.57;12.73;;;;;;;9.67;100.00;99719.22;4982861;57;1136607;-85
2024/03/23 02:38:47;;;;;;;16.87;10.30;;;;;;;9.68;100.00;99702.41;4922792;56;1140802;-84
2024/03/23 02:44:02;;;;;;;9.00;3.47;;;;;;;9.66;100.00;99707.82;4716915;59;1140651;-85
2024/03/23 02:49:11;;;;;;;19.37;4.27;;;;;;;9.43;100.00;99718.22;4784253;58;1136612;-84
2024/03/23 02:54:22;;;;;;;17.40;5.03;;;;;;;9.15;100.00;99711.82;4785675;60;1138520;-84
2024/03/23 02:59:38;;;;;;;;;;;;;;;;;;;;;
2024/03/23 03:04:54;;;;;;;;;;;;;;;;;;;;;
2024/03/23 03:10:25;;;;;;;17.03;4.60;;;;;;;8.74;100.00;99717.89;5258877;55;46913;-84
2024/03/23 03:15:45;;;;;;;;;;;;;;;;;;;;;
2024/03/23 03:22:00;;;;;;;;;;;;;;;;;;;;;
2024/03/23 03:26:52;;;;;;;;;;;;;;;;;;;;;
2024/03/23 03:32:13;;;;;;;22.60;3.77;;;;;;;8.53;100.00;99693.33;5284584;53;46959;-85
2024/03/23 04:00:03;;;;;;;21.68;4.22;;;;;;;8.58;100.00;99674.00;4876592;58;1134315;-88
2024/03/23 04:05:09;;;;;;;21.23;5.78;;;;;;;8.55;100.00;99665.89;4626621;59;1138904;-85
2024/03/23 04:10:15;;;;;;;21.07;4.93;;;;;;;8.54;100.00;99667.33;4653033;60;1139201;-85
2024/03/23 04:15:21;;;;;;;17.63;4.07;;;;;;;8.53;100.00;99664.34;4602147;60;1138813;-88
2024/03/23 04:20:27;;;;;;;29.43;7.43;;;;;;;8.52;100.00;99678.47;4686809;60;1138950;-86
2024/03/23 04:25:33;;;;;;;31.87;8.80;;;;;;;8.45;100.00;99670.22;4687439;60;1138934;-87
2024/03/23 04:30:38;;;;;;;34.27;9.70;;;;;;;8.46;100.00;99673.22;4735873;60;1138767;-88
2024/03/23 04:35:44;;;;;;;36.73;8.57;;;;;;;8.45;100.00;99672.86;4735847;60;1138854;-87
2024/03/23 04:40:58;;;;;;;33.43;10.80;;;;;;;8.51;100.00;99660.98;4754342;60;1138775;-85
2024/03/23 04:46:04;;;;;;;27.85;7.30;;;;;;;8.54;100.00;99656.78;4735704;60;1141106;-87
2024/03/23 04:51:12;;;;;;;24.57;6.50;;;;;;;8.55;100.00;99645.28;4735628;60;1139034;-87
2024/03/23 04:56:18;;;;;;;35.80;7.40;;;;;;;8.44;100.00;99639.08;4752713;59;1138942;-87
2024/03/23 05:01:24;;;;;;;21.00;4.42;;;;;;;8.31;100.00;99622.59;4693817;59;1138667;-85
2024/03/23 05:06:30;;;;;;;21.37;4.43;;;;;;;8.23;100.00;99614.97;4714551;58;1138743;-87
2024/03/23 05:11:36;;;;;;;18.55;4.80;;;;;;;8.14;100.00;99594.16;4588973;59;1138594;-85
2024/03/23 05:16:42;;;;;;;18.47;4.20;;;;;;;8.11;100.00;99599.20;4766878;59;1138928;-89
2024/03/23 05:21:47;;;;;;;28.52;3.85;;;;;;;8.15;100.00;99597.63;4723680;59;1138688;-88
2024/03/23 05:26:53;;;;;;;24.93;4.47;;;;;;;8.16;100.00;99594.88;4771804;58;1138976;-88
2024/03/23 05:31:59;;;;;;;22.07;4.80;;;;;;;8.17;100.00;99583.38;4790516;58;1139318;-87
2024/03/23 05:37:05;;;;;;;18.30;3.47;;;;;;;8.07;100.00;99578.05;4771795;58;1138901;-87
2024/03/23 05:42:10;;;;;;;20.50;4.60;;;;;;;8.00;100.00;99574.23;4771959;58;1138903;-86
2024/03/23 05:47:16;;;;;;;20.70;6.10;;;;;;;7.98;100.00;99554.25;4790341;58;1138615;-85
2024/03/23 05:52:22;;;;;;;30.97;7.10;;;;;;;8.00;100.00;99553.64;4771484;59;1138748;-85
2024/03/23 05:57:27;;;;;;;40.90;6.13;;;;;;;7.97;100.00;99559.99;4771771;58;1138652;-87
2024/03/23 06:02:33;;;;;;;18.93;4.57;;;;;;;7.97;100.00;99578.42;4789898;59;1138932;-86
2024/03/23 06:07:39;;;;;;;19.70;4.63;;;;;;;8.01;100.00;99587.75;4771197;59;1138803;-87
2024/03/23 06:12:46;;;;;;;21.30;6.45;;;;;;;8.07;100.00;99583.31;4781077;59;1138832;-88
2024/03/23 06:17:52;;;;;;;24.90;5.53;;;;;;;8.12;100.00;99573.70;4832439;59;1138820;-86
2024/03/23 06:22:59;;;;;;;22.50;4.80;;;;;;;8.14;100.00;99571.77;4632016;60;1138627;-87
2024/03/23 06:28:04;;;;;;;24.70;5.12;;;;;;;8.12;100.00;99554.78;4766671;59;1138913;-85
2024/03/23 06:33:10;;;;;;;17.10;5.70;;;;;;;8.11;100.00;99550.95;4696066;60;1138903;-86
2024/03/23 06:38:16;;;;;;;26.07;5.80;;;;;;;8.08;100.00;99570.98;4771464;59;1138935;-85
2024/03/23 06:43:22;;;;;;;25.05;8.78;;;;;;;8.07;100.00;99539.86;4683925;60;1138924;-83
2024/03/23 06:48:27;;;;;;;31.77;9.20;;;;;;;8.04;100.00;99549.81;4790172;59;1138676;-82
2024/03/23 06:53:33;;;;;;;23.27;5.60;;;;;;;8.09;100.00;99538.42;4770855;59;1139334;-83
2024/03/23 06:58:38;;;;;;;21.13;4.47;;;;;;;8.10;100.00;99532.16;4771063;58;1138872;-85
2024/03/23 07:03:44;;;;;;;21.50;6.03;;;;;;;8.09;100.00;99537.94;4771334;59;1138814;-85
2024/03/23 07:08:49;;;;;;;33.67;6.80;;;;;;;8.08;100.00;99538.06;4786678;59;1138981;-86
2024/03/23 07:13:55;;;;;;;37.27;7.83;;;;;;;8.07;100.00;99519.28;4767559;59;1139177;-85
2024/03/23 07:19:01;;;;;;;24.83;6.17;;;;;;;8.09;100.00;99514.24;4775368;59;1138694;-85
2024/03/23 07:24:07;;;;;;;19.92;5.03;;;;;;;8.11;100.00;99493.02;4789714;59;1138930;-86
2024/03/23 07:29:13;;;;;;;22.30;4.25;;;;;;;8.14;100.00;99487.50;4756144;59;1139106;-86
2024/03/23 07:34:18;;;;;;;29.37;5.30;;;;;;;8.09;100.00;99497.13;4708665;59;1138636;-84
2024/03/23 07:39:24;;;;;;;16.90;4.93;;;;;;;8.00;100.00;99485.19;4730546;59;1138934;-87
2024/03/23 07:44:30;;;;;;;19.80;4.30;;;;;;;7.96;100.00;99484.59;4771357;59;1139567;-84
2024/03/23 07:49:35;;;;;;;20.67;4.00;;;;;;;7.96;100.00;99482.45;4770864;59;1138661;-87
2024/03/23 07:54:41;;;;;;;22.83;4.30;;;;;;;8.02;100.00;99476.69;4767477;59;1138804;-85
2024/03/23 07:59:47;;;;;;;23.07;5.27;;;;;;;8.07;100.00;99474.51;4773750;59;1138476;-86
2024/03/23 08:04:52;;;;;;;25.80;4.13;;;;;;;8.10;100.00;99465.84;4761340;59;1138529;-84
2024/03/23 08:09:59;;;;;;;28.90;3.70;;;;;;;8.03;100.00;99457.29;4744068;60;1138639;-87
2024/03/23 08:15:05;;;;;;;19.63;4.00;;;;;;;7.96;100.00;99456.12;4764023;59;1138641;-86
2024/03/23 08:20:12;;;;;;;14.30;4.27;;;;;;;8.04;100.00;99453.22;4757234;59;1138601;-87
2024/03/23 08:25:17;;;;;;;13.45;3.45;;;;;;;8.10;100.00;99433.41;4770798;58;1138830;-87
2024/03/23 08:30:23;;;;;;;13.00;3.00;;;;;;;8.13;100.00;99429.20;4789984;59;1138796;-85
2024/03/23 08:35:29;;;;;;;18.03;4.60;;;;;;;8.14;100.00;99409.80;4770840;59;1138598;-85
2024/03/23 08:40:39;;;;;;;16.60;3.70;;;;;;;8.13;100.00;99377.85;4767986;59;1138641;-86
2024/03/23 08:45:48;;;;;;;24.63;3.67;;;;;;;8.12;100.00;99363.02;4768351;59;1139041;-85
2024/03/23 08:51:11;;;;;;;17.70;3.80;;;;;;;8.14;100.00;99370.30;4789241;59;1138884;-85
2024/03/23 08:56:17;;;;;;;17.00;4.13;;;;;;;8.23;100.00;99377.92;4770958;59;1138805;-85
2024/03/23 09:01:23;;;;;;;16.47;4.47;;;;;;;8.26;100.00;99395.58;4770952;59;1138561;-85
2024/03/23 09:06:29;;;;;;;16.97;4.97;;;;;;;8.29;100.00;99384.79;4789512;59;1139134;-85
2024/03/23 09:11:35;;;;;;;17.97;5.07;;;;;;;8.30;100.00;99390.41;4770750;59;1138452;-84
2024/03/23 09:16:55;;;;;;;;;;;;;;;;;;;;;
2024/03/23 09:28:18;;;;;;;27.20;6.45;;;;;;;8.25;100.00;99346.50;4539997;60;1138798;-84
2024/03/23 09:33:36;;;;;;;23.40;4.83;;;;;;;8.05;100.00;99342.98;4607145;60;1138849;-86
2024/03/23 09:44:38;;;;;;;22.80;4.73;;;;;;;7.95;100.00;99324.96;5400176;53;46681;-86
2024/03/23 09:49:44;;;;;;;16.80;2.70;;;;;;;7.94;100.00;99322.48;5196660;54;1134169;-85
2024/03/23 09:54:50;;;;;;;18.17;4.30;;;;;;;7.96;100.00;99305.56;5102499;55;1138620;-85
2024/03/23 09:59:57;;;;;;;14.50;3.20;;;;;;;7.98;100.00;99294.42;5090446;55;1138593;-87
2024/03/23 10:05:04;;;;;;;15.35;4.00;;;;;;;8.00;100.00;99281.97;5144086;55;1139310;-86
2024/03/23 10:10:17;;;;;;;11.53;2.97;;;;;;;8.03;100.00;99292.23;5202447;54;1138408;-86
2024/03/23 10:15:27;;;;;;;18.40;4.63;;;;;;;8.07;100.00;99292.81;5179712;55;1138673;-86
2024/03/23 10:20:33;;;;;;;14.90;4.07;;;;;;;8.02;100.00;99267.36;5121649;55;1138474;-87
2024/03/23 10:25:40;;;;;;;11.47;3.37;;;;;;;8.00;100.00;99277.19;5126946;55;1138748;-87
2024/03/23 10:30:46;;;;;;;12.33;4.07;;;;;;;7.88;100.00;99267.23;5146843;55;1138427;-85
2024/03/23 10:35:52;;;;;;;7.93;2.87;;;;;;;7.84;100.00;99266.31;5183540;55;1138871;-84
2024/03/23 10:41:01;;;;;;;17.17;5.55;;;;;;;7.77;100.00;99260.76;5100239;55;1136421;-84
2024/03/23 10:46:12;;;;;;;19.57;5.70;;;;;;;7.72;100.00;99262.46;4983610;55;1138669;-84
2024/03/23 11:07:38;;;;;;;25.70;15.13;;;;;;;7.82;100.00;99254.59;4956196;58;97372;-86
2024/03/23 11:12:45;;;;;;;17.83;8.37;;;;;;;7.66;100.00;99253.77;4867800;58;1136401;-89
2024/03/23 11:18:08;;;;;;;8.43;4.90;;;;;;;7.62;100.00;99262.08;4781800;59;1138878;-86
2024/03/23 11:23:29;;;;;;;;;;;;;;;7.37;100.00;99237.00;4736758;60;1136784;-86
2024/03/23 11:28:34;;;;;;;9.70;4.33;;;;;;;7.36;100.00;99230.06;4798800;58;973847;-82
2024/03/23 11:33:40;;;;;;;8.83;3.00;;;;;;;7.34;100.00;99210.95;4893098;58;1134363;-86
2024/03/23 11:38:46;;;;;;;7.93;2.53;;;;;;;7.33;100.00;99186.45;4839132;58;1136875;-91
2024/03/23 11:43:51;;;;;;;9.37;2.70;;;;;;;7.33;100.00;99185.13;4955675;58;1136608;-85
2024/03/23 11:48:57;;;;;;;10.87;3.43;;;;;;;7.32;100.00;99141.89;4968188;58;1141534;-89
2024/03/23 11:54:10;;;;;;;6.40;2.47;;;;;;;7.34;100.00;99134.68;4952031;57;1138740;-86
2024/03/23 11:59:18;;;;;;;;;;;;;;;7.33;100.00;99125.95;5023138;58;1136207;-85
2024/03/23 12:04:33;;;;;;;8.90;2.80;;;;;;;7.35;100.00;99141.61;4966714;57;974182;-89
2024/03/23 12:09:38;;;;;;;5.10;2.53;;;;;;;7.29;100.00;99118.00;4976561;57;1134441;-88
2024/03/23 12:14:56;;;;;;;9.75;3.80;;;;;;;7.24;100.00;99100.47;4951530;57;1136846;-86
2024/03/23 12:20:00;;;;;;;6.10;2.53;;;;;;;7.21;100.00;99098.09;5010664;57;1136227;-84
2024/03/23 12:25:06;;;;;;;8.77;3.90;;;;;;;7.12;100.00;99101.53;4953703;57;1146346;-84
2024/03/23 12:30:13;;;;;;;6.40;2.67;;;;;;;7.05;100.00;99108.27;4943413;57;1136617;-84
2024/03/23 12:35:18;;;;;;;14.20;4.10;;;;;;;6.97;100.00;99092.33;4888075;58;1136760;-88
2024/03/23 12:40:27;;;;;;;6.07;2.50;;;;;;;6.95;100.00;99078.00;4901488;58;1138646;-86
2024/03/23 12:45:36;;;;;;;6.77;3.00;;;;;;;6.94;100.00;99084.22;4983219;57;1136532;-87
2024/03/23 12:50:44;;;;;;;9.00;3.62;;;;;;;6.87;100.00;99065.18;4890509;57;1136615;-87
2024/03/23 12:55:50;;;;;;;11.80;5.03;;;;;;;6.96;100.00;99077.04;4870808;58;1136499;-87
2024/03/23 13:00:56;;;;;;;15.37;5.00;;;;;;;6.91;100.00;99084.47;4913011;58;1138595;-86
2024/03/23 13:06:04;;;;;;;9.83;4.97;;;;;;;6.85;100.00;99082.39;4941607;57;1250655;-85
2024/03/23 13:11:13;;;;;;;50.63;24.25;;;;;;;6.85;100.00;99094.69;4916180;57;1136433;-90
2024/03/23 13:16:18;;;;;;;66.75;28.90;;;;;;;6.87;100.00;99122.52;4893197;59;1140762;-84
2024/03/23 13:21:24;;;;;;;23.47;12.73;;;;;;;6.69;100.00;99149.02;4834287;59;1140805;-88
2024/03/23 13:26:30;;;;;;;13.33;5.60;;;;;;;6.57;100.00;99176.30;4836648;58;1140726;-86
2024/03/23 13:31:35;;;;;;;4.73;2.17;;;;;;;6.18;100.00;99202.21;4856501;59;1138431;-87
2024/03/23 13:36:44;;;;;;;30.83;11.67;;;;;;;5.77;100.00;99234.81;4838244;59;1136461;-87
2024/03/23 13:41:50;;;;;;;10.10;4.30;;;;;;;5.35;100.00;99237.67;4951171;57;1138656;-86
2024/03/23 13:46:55;;;;;;;10.73;4.53;;;;;;;5.18;100.00;99232.39;5009516;58;1139121;-90
2024/03/23 13:52:02;;;;;;;7.03;2.93;;;;;;;5.12;100.00;99221.89;4964246;57;1139059;-85
2024/03/23 13:57:07;;;;;;;7.58;3.50;;;;;;;5.05;100.00;99236.39;4915163;57;1136389;-86
2024/03/23 14:02:14;;;;;;;7.78;3.17;;;;;;;5.05;100.00;99263.91;4934753;57;1136354;-88
2024/03/23 14:07:20;;;;;;;13.27;5.67;;;;;;;5.06;100.00;99272.61;4915499;57;1145977;-87
2024/03/23 14:12:25;;;;;;;4.73;2.97;;;;;;;5.07;100.00;99284.28;4914851;57;1138784;-85
2024/03/23 14:17:31;;;;;;;5.03;2.90;;;;;;;5.02;100.00;99301.31;4893645;57;1136676;-87
2024/03/23 14:22:38;;;;;;;5.10;2.30;;;;;;;4.88;100.00;99309.73;4911658;58;1134391;-85
2024/03/23 14:27:45;;;;;;;7.33;4.37;;;;;;;4.82;100.00;99321.11;4915497;57;1134335;-88
2024/03/23 14:32:51;;;;;;;28.80;10.20;;;;;;;4.85;100.00;99310.42;4934086;57;1136514;-85
2024/03/23 14:37:57;;;;;;;5.10;3.70;;;;;;;4.86;100.00;99315.55;4909206;57;1140858;-87
2024/03/23 14:43:03;;;;;;;6.37;2.30;;;;;;;4.81;100.00;99314.20;4910466;58;1137471;-83
2024/03/23 14:48:10;;;;;;;4.90;3.20;;;;;;;4.72;100.00;99326.67;4953606;57;1135029;-83
2024/03/23 14:53:16;;;;;;;4.92;2.67;;;;;;;4.61;100.00;99341.83;4878874;58;1134954;-83
2024/03/23 14:58:22;;;;;;;5.97;2.45;;;;;;;4.50;100.00;99377.11;4915401;58;1134965;-86
2024/03/23 15:03:28;;;;;;;11.05;4.17;;;;;;;4.38;100.00;99395.00;4934388;59;1134491;-85
2024/03/23 15:08:34;;;;;;;13.33;6.37;;;;;;;4.32;100.00;99418.50;4914730;59;1136588;-84
2024/03/23 15:13:40;;;;;;;12.83;6.63;;;;;;;4.33;100.00;99425.88;4915217;58;1136643;-86
2024/03/23 15:18:45;;;;;;;10.75;5.58;;;;;;;4.36;100.00;99457.92;4915153;59;1136517;-85
2024/03/23 15:23:51;;;;;;;14.23;6.67;;;;;;;4.41;100.00;99465.47;4933948;58;1136763;-86
2024/03/23 15:34:03;;;;;;;15.43;7.17;;;;;;;4.62;100.00;99444.31;4914786;58;1138810;-86
2024/03/23 15:39:09;;;;;;;8.83;4.60;;;;;;;4.62;100.00;99448.72;4934308;58;1136878;-86
2024/03/23 15:44:15;;;;;;;3.80;2.10;;;;;;;4.63;100.00;99453.84;4861427;58;1134665;-85
2024/03/23 15:49:21;;;;;;;2.50;1.92;;;;;;;4.54;100.00;99483.30;4838224;58;1134710;-86
2024/03/23 15:54:27;;;;;;;4.13;2.73;;;;;;;4.47;100.00;99501.20;4857333;58;1134245;-85
2024/03/23 15:59:32;;;;;;;6.57;3.03;;;;;;;4.38;100.00;99508.86;4838257;58;1134533;-86
2024/03/23 16:04:38;;;;;;;8.97;5.17;;;;;;;4.28;100.00;99509.13;4885766;57;1135153;-86
2024/03/23 16:09:44;;;;;;;5.70;3.22;;;;;;;4.28;100.00;99509.13;4905462;58;1134236;-83
2024/03/23 16:14:49;;;;;;;16.37;6.97;;;;;;;4.26;100.00;99513.63;4893893;58;1134530;-88
2024/03/23 16:19:55;;;;;;;10.63;4.67;;;;;;;4.24;100.00;99510.64;4904308;58;1136961;-85
2024/03/23 16:25:00;;;;;;;17.40;6.50;;;;;;;4.20;100.00;99514.88;4907499;58;1136850;-85
2024/03/23 16:30:08;;;;;;;8.65;4.00;;;;;;;4.19;100.00;99518.42;4932211;57;1136649;-84
2024/03/23 16:35:14;;;;;;;9.75;4.60;;;;;;;4.21;100.00;99506.08;4892613;58;1134586;-90
2024/03/23 16:40:20;;;;;;;3.13;2.20;;;;;;;4.19;100.00;99510.57;4915135;57;1134471;-85
2024/03/23 16:45:25;;;;;;;2.87;2.17;;;;;;;4.08;100.00;99510.47;4927464;58;1134704;-88
2024/03/23 16:50:31;;;;;;;3.57;2.23;;;;;;;4.02;100.00;99531.79;4896398;58;1134536;-85
2024/03/23 16:55:36;;;;;;;7.10;4.00;;;;;;;3.96;100.00;99531.75;4905338;57;1134344;-87
2024/03/23 17:00:42;;;;;;;115.30;41.25;;;;;;;3.93;100.00;99557.27;4899716;58;1134416;-88
2024/03/23 17:05:48;;;;;;;70.40;30.17;;;;;;;3.93;100.00;99563.80;4921679;58;1140747;-86
2024/03/23 17:11:00;;;;;;;20.55;13.20;;;;;;;3.86;100.00;99560.27;4931952;58;1138914;-88
2024/03/23 17:16:08;;;;;;;11.52;6.32;;;;;;;3.85;100.00;99553.36;4930974;58;1139014;-87
2024/03/23 17:21:14;;;;;;;6.33;3.10;;;;;;;3.90;100.00;99562.22;4933920;58;1136502;-90
2024/03/23 17:26:20;;;;;;;8.65;4.80;;;;;;;3.87;100.00;99578.11;4922856;57;1134615;-86
2024/03/23 17:31:25;;;;;;;13.28;6.92;;;;;;;3.86;100.00;99573.81;4929087;58;1134765;-84
2024/03/23 17:36:31;;;;;;;8.53;5.07;;;;;;;3.85;100.00;99561.20;4942428;58;1136444;-85
2024/03/23 17:41:37;;;;;;;3.93;3.37;;;;;;;3.91;100.00;99543.44;4920933;57;1134619;-85
2024/03/23 17:46:42;;;;;;;3.00;2.07;;;;;;;3.94;100.00;99568.09;4949178;57;1134317;-83
2024/03/23 17:51:48;;;;;;;10.35;8.25;;;;;;;4.01;100.00;99561.04;4962575;58;1134313;-84
2024/03/23 17:56:54;;;;;;;7.37;3.13;;;;;;;4.07;100.00;99570.27;4966848;58;1136422;-82
2024/03/23 18:01:59;;;;;;;4.10;2.10;;;;;;;4.06;100.00;99596.06;4947551;58;1134733;-83
2024/03/23 18:07:05;;;;;;;2.10;1.33;;;;;;;3.93;100.00;99614.34;4993689;57;1134899;-84
2024/03/23 18:12:12;;;;;;;3.97;1.70;;;;;;;3.74;100.00;99602.91;4923435;58;1134931;-82
2024/03/23 18:17:17;;;;;;;3.93;1.60;;;;;;;3.65;100.00;99608.74;4901857;58;1134845;-85
2024/03/23 18:22:23;;;;;;;5.30;1.67;;;;;;;3.56;100.00;99600.16;4949244;58;1134619;-82
2024/03/23 18:27:28;;;;;;;11.60;2.50;;;;;;;3.49;100.00;99601.50;4982304;58;1134737;-85
2024/03/23 18:32:34;;;;;;;4.93;2.40;;;;;;;3.45;100.00;99627.45;4962569;57;1136387;-85
2024/03/23 18:37:39;;;;;;;5.00;2.70;;;;;;;3.42;100.00;99666.84;4966943;57;1134788;-83
2024/03/23 18:42:45;;;;;;;4.80;2.93;;;;;;;3.47;100.00;99732.75;4904839;57;1134348;-86
2024/03/23 18:47:51;;;;;;;3.93;2.70;;;;;;;3.48;100.00;99688.69;4981666;58;1134396;-82
2024/03/23 18:52:56;;;;;;;5.87;2.87;;;;;;;3.47;100.00;99674.78;4957724;58;1134267;-80
2024/03/23 18:58:03;;;;;;;5.40;3.13;;;;;;;3.47;100.00;99675.25;4950670;57;1134737;-84
2024/03/23 19:03:09;;;;;;;4.97;2.85;;;;;;;3.47;100.00;99670.02;4934247;57;1134505;-84
2024/03/23 19:08:15;;;;;;;8.33;5.87;;;;;;;3.44;100.00;99681.50;4922156;57;1134828;-84
2024/03/23 19:13:21;;;;;;;9.25;5.55;;;;;;;3.46;100.00;99678.33;4952083;57;1134624;-86
2024/03/23 19:18:26;;;;;;;5.85;4.70;;;;;;;3.54;100.00;99675.22;4953052;57;1134625;-86
2024/03/23 19:23:33;;;;;;;7.63;4.23;;;;;;;3.56;100.00;99662.90;4930285;57;1134633;-90
2024/03/23 19:28:41;;;;;;;11.97;6.80;;;;;;;3.63;100.00;99673.83;4926212;57;1134637;-85
2024/03/23 19:33:48;;;;;;;10.90;5.17;;;;;;;3.66;100.00;99677.09;4925053;58;1136389;-82
2024/03/23 19:38:55;;;;;;;14.23;6.80;;;;;;;3.72;100.00;99670.16;4940288;58;1139088;-86
2024/03/23 19:44:01;;;;;;;9.07;5.37;;;;;;;3.82;100.00;99669.09;4924376;58;1139016;-86
2024/03/23 19:49:07;;;;;;;12.37;6.23;;;;;;;3.80;100.00;99665.77;4946416;58;1134522;-87
2024/03/23 19:54:13;;;;;;;13.40;6.50;;;;;;;3.72;100.00;99678.47;4963912;57;1136342;-83
2024/03/23 19:59:18;;;;;;;84.67;32.80;;;;;;;3.63;100.00;99686.90;4922916;58;1136857;-87
2024/03/23 20:04:24;;;;;;;25.80;14.17;;;;;;;3.57;100.00;99672.89;4898086;57;1138824;-86
2024/03/23 20:09:31;;;;;;;32.77;17.27;;;;;;;3.56;100.00;99668.59;4936463;58;1138713;-86
2024/03/23 20:14:37;;;;;;;73.10;33.73;;;;;;;3.52;100.00;99667.94;4937223;57;1138907;-86
2024/03/23 20:19:42;;;;;;;21.83;12.03;;;;;;;3.47;100.00;99659.09;4906885;58;1138662;-85
2024/03/23 20:24:50;;;;;;;19.50;8.20;;;;;;;3.46;100.00;99656.11;4848169;58;1138711;-84
2024/03/23 20:29:55;;;;;;;19.17;8.37;;;;;;;3.45;100.00;99650.98;4907092;58;1136681;-83
2024/03/23 20:35:01;;;;;;;21.40;9.77;;;;;;;3.44;100.00;99644.91;4897625;58;1136777;-82
2024/03/23 20:40:08;;;;;;;22.97;10.27;;;;;;;3.42;100.00;99639.39;4837800;57;1136510;-84
2024/03/23 20:45:15;;;;;;;12.63;4.63;;;;;;;3.43;100.00;99635.84;4857221;58;1138684;-85
2024/03/23 20:50:21;;;;;;;12.20;5.80;;;;;;;3.40;100.00;99629.03;4838679;57;1136821;-86
2024/03/23 20:55:27;;;;;;;12.27;5.87;;;;;;;3.42;100.00;99618.48;4990665;57;1138752;-85
2024/03/23 21:00:32;;;;;;;15.03;8.03;;;;;;;3.40;100.00;99612.52;5015286;58;1138677;-86
2024/03/23 21:05:38;;;;;;;12.07;7.00;;;;;;;3.32;100.00;99610.39;4994270;57;1233385;-82
2024/03/23 21:10:53;;;;;;;13.37;6.43;;;;;;;3.30;100.00;99611.42;4996054;57;1136782;-84
2024/03/23 21:16:02;;;;;;;21.93;8.00;;;;;;;3.23;100.00;99614.02;4902398;57;1136783;-84
2024/03/23 21:21:09;;;;;;;21.40;10.67;;;;;;;3.20;100.00;99602.02;4872820;58;1136866;-83
2024/03/23 21:26:14;;;;;;;25.27;10.53;;;;;;;3.18;100.00;99607.80;4995270;57;1147483;-84
2024/03/23 21:31:20;;;;;;;28.42;12.45;;;;;;;3.18;100.00;99611.25;4995781;57;1138777;-83
2024/03/23 21:36:25;;;;;;;20.67;12.27;;;;;;;3.18;100.00;99604.72;5015150;57;1138706;-83
2024/03/23 21:41:32;;;;;;;31.73;12.67;;;;;;;3.22;100.00;99600.59;4928092;57;1138786;-85
2024/03/23 21:46:38;;;;;;;15.90;7.83;;;;;;;3.20;100.00;99586.34;4838511;58;1138650;-84
2024/03/23 21:51:43;;;;;;;20.87;9.60;;;;;;;3.20;100.00;99580.27;4913653;58;1136721;-85
2024/03/23 21:56:49;;;;;;;20.80;8.33;;;;;;;3.20;100.00;99578.50;4934453;58;1136520;-84
2024/03/23 22:01:54;;;;;;;24.83;10.27;;;;;;;3.20;100.00;99579.80;4915387;58;1136415;-85
2024/03/23 22:07:00;;;;;;;33.73;14.20;;;;;;;3.18;100.00;99582.52;4904595;58;1138944;-86
2024/03/23 22:12:07;;;;;;;31.33;13.43;;;;;;;3.20;100.00;99578.97;4898287;59;1139197;-87
2024/03/23 22:17:13;;;;;;;58.13;16.77;;;;;;;3.20;100.00;99567.20;4884417;58;1138855;-87
2024/03/23 22:22:19;;;;;;;24.07;9.23;;;;;;;3.14;100.00;99545.75;4867514;58;1138589;-85
2024/03/23 22:27:24;;;;;;;23.60;10.30;;;;;;;3.24;100.00;99549.91;4931087;58;1136689;-85
2024/03/23 22:32:30;;;;;;;19.93;8.10;;;;;;;3.23;100.00;99551.31;4927474;58;1139249;-88
2024/03/23 22:37:36;;;;;;;25.10;7.77;;;;;;;3.20;100.00;99548.92;4951292;57;1136747;-85
2024/03/23 22:42:42;;;;;;;19.60;8.53;;;;;;;3.15;100.00;99538.28;4950709;57;1136700;-84
2024/03/23 22:47:48;;;;;;;21.57;8.20;;;;;;;3.12;100.00;99533.24;4995720;57;1136716;-86
2024/03/23 22:52:53;;;;;;;21.50;8.03;;;;;;;3.13;100.00;99529.70;4937698;56;1136717;-85
2024/03/23 22:57:59;;;;;;;47.20;22.53;;;;;;;3.12;100.00;99526.71;4922273;57;1136423;-84
2024/03/23 23:03:05;;;;;;;22.00;9.17;;;;;;;3.12;100.00;99525.41;4907005;59;1138643;-85
2024/03/23 23:08:12;;;;;;;29.57;9.83;;;;;;;3.12;100.00;99517.56;4887931;59;1136422;-85
2024/03/23 23:13:17;;;;;;;24.40;8.13;;;;;;;3.09;100.00;99511.23;4935364;57;1136809;-84
2024/03/23 23:18:29;;;;;;;27.02;8.50;;;;;;;3.09;100.00;99511.69;5069058;57;1136478;-83
2024/03/23 23:23:30;;;;;;;108.37;33.55;;;;;;;3.09;100.00;99509.92;5047916;57;1136605;-85
2024/03/23 23:28:36;;;;;;;46.60;12.33;;;;;;;3.09;100.00;99511.69;5025308;57;1140517;-83
2024/03/23 23:33:42;;;;;;;24.83;8.00;;;;;;;3.07;100.00;99518.31;4996094;57;1138897;-85
2024/03/23 23:38:50;;;;;;;26.63;9.27;;;;;;;3.07;100.00;99509.17;5015594;57;1136418;-85
2024/03/23 23:44:02;;;;;;;16.60;6.53;;;;;;;3.06;100.00;99510.57;4937038;57;1136496;-85
2024/03/23 23:49:07;;;;;;;15.53;6.13;;;;;;;3.05;100.00;99505.84;4921148;57;1136458;-82
2024/03/23 23:54:12;;;;;;;13.05;5.90;;;;;;;3.02;100.00;99504.73;4934634;58;1136725;-81
2024/03/23 23:59:20;;;;;;;20.83;7.00;;;;;;;3.01;100.00;99498.29;4916044;58;1136751;-85
